Carnesville, Georgia
Current Conditions -  °F | °C
As of 10:55 AM on Monday 24 Nov 2014 (Local Time) from KTOC Reporting Station
Overcast Overcast  
Wind Chill: 16°   Ceiling: 400
Heat Index: 16°   Visibility: 7mi
Dew Point: 15°   Wind: 7mph
Humidity: 93%   Direction: 230°SW
Pressure: 29.82"   Gusts: NA
Location:  34.37°N, 83.24°W
Report Text: KTOC 241555Z AUTO 23006KT 7SM OVC004 16/15 A2982 RMK AO2 T01630151
Loading
Personal Weather Stations






























Interactive Weather Map New forecast layout! Learn more

10-Day Weather Forecast

Advertisements
Track Severe Weather on mobile